Terminal Aerodrome Forecast
Issued by NWS

Current Version | Previous Version | Text Only | Print | Product List | Glossary On
Versions: 1 2 3 4 5 6 7 8 9 10 11 12 13 14 15 16
000
FTUS44 KEWX 282300
TAFSSF
TAF
KSSF 282333Z 2900/2924 17005KT P6SM FEW250
     FM291000 19003KT P6SM BKN015
     FM291500 19007KT P6SM BKN025
     FM291900 19012G22KT P6SM BKN040=

USA.gov is the U.S. government's official web portal to all federal, state and local government web resources and services.